アスタナ の空港の天気 - METARとTAF

アスタナ国際空港 ( UACC / TSE ) - カザフスタン アスタナ
飛行場実況気象(Metar)
観測時間04/21 21:30 QYZT (04/21 16:30 UTC)
風向・風速東 3m/s
視程10km以上
天気現象
なし
気温3℃
湿度81%
気圧1021hPa
METARUACC 211630Z 09003MPS CAVOK 03/00 Q1021 R04/0///70 NOSIG RMK QFE734/0978
過去の天気等 Google飛行場航空写真 Wunderground天気予報

過去48時間のMETAR

飛行場予報(TAF)
発表時間: 4/21 16:00 QYZT (4/21 11:00 UTC)
予報対象時間: 21日17時 QYZT ~ 22日17時 QYZT
風向・風速北 4m/s
視程10km以上
全天の8割程度の雲 雲底高度 1220m
21日17時 QYZT ~ 21日19時 QYZT に一時的に
全天の4割程度の積乱雲 雲底高度 910m
21日19時 QYZT ~ 21日21時 QYZT に徐々に
風向・風速不定 2m/s
21日21時 QYZT ~ 22日8時 QYZT に一時的に
視程3100m
天気現象もや
少しの雲 雲底高度 120m
TAF UACC 211100Z 2112/2212 35004MPS 9999 BKN040 TX09/2210Z TNM03/2201Z
TEMPO 2112/2114 SCT030CB
BECMG 2114/2116 VRB02MPS
TEMPO 2116/2203 3100 BR FEW004